Oxford, KS

5:56 AM CDT on August 30, 2016 (GMT -0500)
DeLaughter's House | | Change Station

Elev 1194 ft 37.28 °N, 97.18 °W | Updated 8 seconds ago

Partly Cloudy
Partly Cloudy
70.5 °F
Feels Like 70.5 °F
N
0.0
Wind Variable Wind from NNW
Gusts 0.0 mph

Today
High -- | Low -- °F
--% Chance of Precip.
Yesterday
High -- | Low -- °F
Precip. -- in
Pressure 30.11 in
Visibility 10.0 miles
Clouds Few 9000 ft
Dew Point 69 °F
Humidity 95%
Rainfall 0.00 in
Snow Depth Not available.
6:58 AM 7:59 PM
Waning Crescent, 4% visible
METAR KWLD 301054Z AUTO 01003KT 10SM FEW090 21/20 A3014 RMK AO2 SLP195 T02110200
Pressure 30.11 in
Visibility 10.0 miles
Clouds Few 9000 ft
Dew Point 69 °F
Humidity 95%
Rainfall 0.00 in
Snow Depth Not available.
6:58 AM 7:59 PM
Waning Crescent, 4% visible
METAR KWLD 301054Z AUTO 01003KT 10SM FEW090 21/20 A3014 RMK AO2 SLP195 T02110200

10-Day Weather Forecast

Almanac

Astronomy

Aug. 30, 2016 Rise Set
Actual Time
Civil Twilight
Nautical Twilight
Astronomical Twilight
Moon
Length of Visible Light
Length of Day
Tomorrow will be .
, % of the Moon is Illuminated

Today's Extremes

State Highs State Lows

Community

WunderPhotos

Upload Photos

1,935,809 photos uploaded!

WunderBlog® & News

Nearby

Air Quality

  Air Quality AQ Index Pollutant
Not available.

Snow Depth

Station Depth Elevation

Earthquake Activity

City Distance Mag. Time & Date
Minimum magnitude displayed is 2.5.

Coastal Water Temperatures

Place Temperature

Stations

Nearby Weather Stations

Station Location Temp. Windchill Dew Point Humidity Wind Precip. Elev Updated Type
                   

Watches & Warnings

There are currently no watches in effect.